sensor_id;sensor_type;location;lat;lon;timestamp;P1;durP1;ratioP1;P2;durP2;ratioP2
36923;SDS011;22841;50.252;18.688;2023-05-29T00:00:22;11.40;;;6.75;;
36923;SDS011;22841;50.252;18.688;2023-05-29T00:02:49;24.42;;;6.63;;
36923;SDS011;22841;50.252;18.688;2023-05-29T00:05:16;16.13;;;6.30;;
36923;SDS011;22841;50.252;18.688;2023-05-29T00:07:43;12.20;;;6.40;;
36923;SDS011;22841;50.252;18.688;2023-05-29T00:10:10;11.70;;;6.57;;
36923;SDS011;22841;50.252;18.688;2023-05-29T00:12:37;9.82;;;6.13;;
36923;SDS011;22841;50.252;18.688;2023-05-29T00:15:04;10.73;;;7.38;;
36923;SDS011;22841;50.252;18.688;2023-05-29T00:17:31;13.80;;;7.00;;
36923;SDS011;22841;50.252;18.688;2023-05-29T00:19:58;23.10;;;7.00;;
36923;SDS011;22841;50.252;18.688;2023-05-29T00:22:24;17.60;;;7.07;;
36923;SDS011;22841;50.252;18.688;2023-05-29T00:24:53;11.05;;;6.78;;
36923;SDS011;22841;50.252;18.688;2023-05-29T00:27:19;16.33;;;7.35;;
36923;SDS011;22841;50.252;18.688;2023-05-29T00:29:46;13.05;;;6.57;;
36923;SDS011;22841;50.252;18.688;2023-05-29T00:32:12;13.05;;;6.88;;
36923;SDS011;22841;50.252;18.688;2023-05-29T00:34:38;15.68;;;6.05;;
36923;SDS011;22841;50.252;18.688;2023-05-29T00:37:04;14.85;;;7.05;;
36923;SDS011;22841;50.252;18.688;2023-05-29T00:39:30;11.82;;;6.85;;
36923;SDS011;22841;50.252;18.688;2023-05-29T00:41:57;15.15;;;6.90;;
36923;SDS011;22841;50.252;18.688;2023-05-29T00:44:23;8.88;;;6.05;;
36923;SDS011;22841;50.252;18.688;2023-05-29T00:46:49;12.93;;;6.22;;
36923;SDS011;22841;50.252;18.688;2023-05-29T00:49:21;14.25;;;6.05;;
36923;SDS011;22841;50.252;18.688;2023-05-29T00:51:49;9.45;;;5.93;;
36923;SDS011;22841;50.252;18.688;2023-05-29T00:54:20;14.95;;;6.72;;
36923;SDS011;22841;50.252;18.688;2023-05-29T00:56:48;11.48;;;6.78;;
36923;SDS011;22841;50.252;18.688;2023-05-29T00:59:15;10.05;;;5.55;;
36923;SDS011;22841;50.252;18.688;2023-05-29T01:01:41;16.48;;;6.35;;
36923;SDS011;22841;50.252;18.688;2023-05-29T01:04:08;13.57;;;6.43;;
36923;SDS011;22841;50.252;18.688;2023-05-29T01:06:38;15.18;;;6.95;;
36923;SDS011;22841;50.252;18.688;2023-05-29T01:09:05;9.98;;;6.13;;
36923;SDS011;22841;50.252;18.688;2023-05-29T01:11:32;10.10;;;6.70;;
36923;SDS011;22841;50.252;18.688;2023-05-29T01:14:11;17.88;;;6.22;;
36923;SDS011;22841;50.252;18.688;2023-05-29T01:16:48;12.32;;;6.72;;
36923;SDS011;22841;50.252;18.688;2023-05-29T01:19:39;18.55;;;6.85;;
36923;SDS011;22841;50.252;18.688;2023-05-29T01:22:16;12.57;;;6.63;;
36923;SDS011;22841;50.252;18.688;2023-05-29T01:27:24;12.80;;;6.53;;
36923;SDS011;22841;50.252;18.688;2023-05-29T01:29:55;11.80;;;5.88;;
36923;SDS011;22841;50.252;18.688;2023-05-29T01:32:23;11.85;;;6.32;;
36923;SDS011;22841;50.252;18.688;2023-05-29T01:34:51;16.20;;;6.57;;
36923;SDS011;22841;50.252;18.688;2023-05-29T01:37:17;9.88;;;6.10;;
36923;SDS011;22841;50.252;18.688;2023-05-29T01:39:43;16.85;;;6.60;;
36923;SDS011;22841;50.252;18.688;2023-05-29T01:42:09;17.00;;;7.45;;
36923;SDS011;22841;50.252;18.688;2023-05-29T01:44:37;10.63;;;6.15;;
36923;SDS011;22841;50.252;18.688;2023-05-29T01:47:04;13.50;;;6.55;;
36923;SDS011;22841;50.252;18.688;2023-05-29T01:49:31;16.30;;;6.20;;
36923;SDS011;22841;50.252;18.688;2023-05-29T01:51:58;14.98;;;6.95;;
36923;SDS011;22841;50.252;18.688;2023-05-29T01:54:24;11.25;;;7.03;;
36923;SDS011;22841;50.252;18.688;2023-05-29T01:56:50;17.80;;;6.63;;
36923;SDS011;22841;50.252;18.688;2023-05-29T01:59:17;15.95;;;6.88;;
36923;SDS011;22841;50.252;18.688;2023-05-29T02:01:43;17.58;;;6.18;;
36923;SDS011;22841;50.252;18.688;2023-05-29T02:04:09;14.23;;;6.68;;
36923;SDS011;22841;50.252;18.688;2023-05-29T02:06:35;11.50;;;6.40;;
36923;SDS011;22841;50.252;18.688;2023-05-29T02:09:02;14.75;;;6.88;;
36923;SDS011;22841;50.252;18.688;2023-05-29T02:11:28;12.50;;;6.68;;
36923;SDS011;22841;50.252;18.688;2023-05-29T02:13:54;15.73;;;6.47;;
36923;SDS011;22841;50.252;18.688;2023-05-29T02:16:20;18.23;;;7.20;;
36923;SDS011;22841;50.252;18.688;2023-05-29T02:18:46;15.57;;;6.65;;
36923;SDS011;22841;50.252;18.688;2023-05-29T02:21:13;13.23;;;7.10;;
36923;SDS011;22841;50.252;18.688;2023-05-29T02:23:39;16.02;;;7.82;;
36923;SDS011;22841;50.252;18.688;2023-05-29T02:26:05;23.15;;;6.70;;
36923;SDS011;22841;50.252;18.688;2023-05-29T02:28:31;22.13;;;7.53;;
36923;SDS011;22841;50.252;18.688;2023-05-29T02:30:57;19.83;;;8.10;;
36923;SDS011;22841;50.252;18.688;2023-05-29T02:33:23;17.90;;;6.93;;
36923;SDS011;22841;50.252;18.688;2023-05-29T02:35:49;11.95;;;7.07;;
36923;SDS011;22841;50.252;18.688;2023-05-29T02:38:15;14.02;;;6.57;;
36923;SDS011;22841;50.252;18.688;2023-05-29T02:40:41;13.48;;;8.18;;
36923;SDS011;22841;50.252;18.688;2023-05-29T02:43:08;18.08;;;7.30;;
36923;SDS011;22841;50.252;18.688;2023-05-29T02:45:39;16.33;;;6.78;;
36923;SDS011;22841;50.252;18.688;2023-05-29T02:48:05;14.18;;;7.20;;
36923;SDS011;22841;50.252;18.688;2023-05-29T02:50:32;14.88;;;6.47;;
36923;SDS011;22841;50.252;18.688;2023-05-29T02:52:58;15.52;;;7.82;;
36923;SDS011;22841;50.252;18.688;2023-05-29T02:55:24;13.82;;;6.95;;
36923;SDS011;22841;50.252;18.688;2023-05-29T02:57:50;12.85;;;6.50;;
36923;SDS011;22841;50.252;18.688;2023-05-29T03:00:18;16.25;;;7.50;;
36923;SDS011;22841;50.252;18.688;2023-05-29T03:02:44;17.45;;;7.85;;
36923;SDS011;22841;50.252;18.688;2023-05-29T03:05:10;17.85;;;8.05;;
36923;SDS011;22841;50.252;18.688;2023-05-29T03:07:37;16.17;;;8.15;;
36923;SDS011;22841;50.252;18.688;2023-05-29T03:10:03;17.73;;;7.65;;
36923;SDS011;22841;50.252;18.688;2023-05-29T03:12:29;16.45;;;7.88;;
36923;SDS011;22841;50.252;18.688;2023-05-29T03:14:55;18.13;;;7.50;;
36923;SDS011;22841;50.252;18.688;2023-05-29T03:17:21;21.08;;;7.45;;
36923;SDS011;22841;50.252;18.688;2023-05-29T03:19:47;16.75;;;7.38;;
36923;SDS011;22841;50.252;18.688;2023-05-29T03:22:13;19.60;;;8.45;;
36923;SDS011;22841;50.252;18.688;2023-05-29T03:24:40;13.13;;;7.35;;
36923;SDS011;22841;50.252;18.688;2023-05-29T03:27:06;20.13;;;9.15;;
36923;SDS011;22841;50.252;18.688;2023-05-29T03:29:32;17.15;;;8.07;;
36923;SDS011;22841;50.252;18.688;2023-05-29T03:31:58;15.48;;;8.55;;
36923;SDS011;22841;50.252;18.688;2023-05-29T03:34:24;17.40;;;8.00;;
36923;SDS011;22841;50.252;18.688;2023-05-29T03:36:50;20.15;;;9.07;;
36923;SDS011;22841;50.252;18.688;2023-05-29T03:39:16;22.73;;;8.98;;
36923;SDS011;22841;50.252;18.688;2023-05-29T03:41:42;27.20;;;8.85;;
36923;SDS011;22841;50.252;18.688;2023-05-29T03:44:09;17.63;;;8.43;;
36923;SDS011;22841;50.252;18.688;2023-05-29T03:46:35;16.23;;;8.27;;
36923;SDS011;22841;50.252;18.688;2023-05-29T03:49:01;18.58;;;8.57;;
36923;SDS011;22841;50.252;18.688;2023-05-29T03:51:27;17.73;;;9.15;;
36923;SDS011;22841;50.252;18.688;2023-05-29T03:53:53;24.50;;;8.73;;
36923;SDS011;22841;50.252;18.688;2023-05-29T03:56:19;15.20;;;7.82;;
36923;SDS011;22841;50.252;18.688;2023-05-29T03:58:45;19.73;;;8.30;;
36923;SDS011;22841;50.252;18.688;2023-05-29T04:01:11;20.05;;;8.80;;
36923;SDS011;22841;50.252;18.688;2023-05-29T04:03:37;14.60;;;7.57;;
36923;SDS011;22841;50.252;18.688;2023-05-29T04:06:04;22.35;;;8.13;;
36923;SDS011;22841;50.252;18.688;2023-05-29T04:08:30;16.17;;;8.60;;
36923;SDS011;22841;50.252;18.688;2023-05-29T04:10:56;23.15;;;8.82;;
36923;SDS011;22841;50.252;18.688;2023-05-29T04:13:22;22.15;;;8.02;;
36923;SDS011;22841;50.252;18.688;2023-05-29T04:15:48;21.30;;;7.95;;
36923;SDS011;22841;50.252;18.688;2023-05-29T04:18:18;19.40;;;8.55;;
36923;SDS011;22841;50.252;18.688;2023-05-29T04:20:44;16.50;;;7.82;;
36923;SDS011;22841;50.252;18.688;2023-05-29T04:23:12;18.85;;;8.65;;
36923;SDS011;22841;50.252;18.688;2023-05-29T04:25:39;15.68;;;8.10;;
36923;SDS011;22841;50.252;18.688;2023-05-29T04:28:05;24.92;;;9.48;;
36923;SDS011;22841;50.252;18.688;2023-05-29T04:30:31;31.27;;;9.52;;
36923;SDS011;22841;50.252;18.688;2023-05-29T04:32:59;17.98;;;9.00;;
36923;SDS011;22841;50.252;18.688;2023-05-29T04:35:25;24.17;;;8.52;;
36923;SDS011;22841;50.252;18.688;2023-05-29T04:37:54;22.05;;;9.48;;
36923;SDS011;22841;50.252;18.688;2023-05-29T04:40:22;16.83;;;8.90;;
36923;SDS011;22841;50.252;18.688;2023-05-29T04:42:48;23.15;;;9.30;;
36923;SDS011;22841;50.252;18.688;2023-05-29T04:45:15;20.30;;;9.82;;
36923;SDS011;22841;50.252;18.688;2023-05-29T04:47:41;40.42;;;11.15;;
36923;SDS011;22841;50.252;18.688;2023-05-29T04:50:11;26.83;;;10.27;;
36923;SDS011;22841;50.252;18.688;2023-05-29T04:52:38;19.98;;;9.90;;
36923;SDS011;22841;50.252;18.688;2023-05-29T04:55:07;24.92;;;8.65;;
36923;SDS011;22841;50.252;18.688;2023-05-29T04:57:33;34.53;;;11.32;;
36923;SDS011;22841;50.252;18.688;2023-05-29T04:59:59;33.13;;;10.15;;
36923;SDS011;22841;50.252;18.688;2023-05-29T05:02:26;31.70;;;8.90;;
36923;SDS011;22841;50.252;18.688;2023-05-29T05:04:52;33.97;;;10.57;;
36923;SDS011;22841;50.252;18.688;2023-05-29T05:07:18;36.22;;;10.02;;
36923;SDS011;22841;50.252;18.688;2023-05-29T05:09:44;33.20;;;10.63;;
36923;SDS011;22841;50.252;18.688;2023-05-29T05:12:10;23.05;;;10.07;;
36923;SDS011;22841;50.252;18.688;2023-05-29T05:14:36;28.05;;;9.88;;
36923;SDS011;22841;50.252;18.688;2023-05-29T05:17:03;22.08;;;9.20;;
36923;SDS011;22841;50.252;18.688;2023-05-29T05:19:29;32.10;;;9.98;;
36923;SDS011;22841;50.252;18.688;2023-05-29T05:21:56;29.13;;;9.52;;
36923;SDS011;22841;50.252;18.688;2023-05-29T05:24:22;27.02;;;8.18;;
36923;SDS011;22841;50.252;18.688;2023-05-29T05:26:48;22.65;;;8.65;;
36923;SDS011;22841;50.252;18.688;2023-05-29T05:29:14;21.20;;;8.43;;
36923;SDS011;22841;50.252;18.688;2023-05-29T05:31:40;27.35;;;9.48;;
36923;SDS011;22841;50.252;18.688;2023-05-29T05:34:06;34.67;;;8.18;;
36923;SDS011;22841;50.252;18.688;2023-05-29T05:36:32;22.83;;;9.10;;
36923;SDS011;22841;50.252;18.688;2023-05-29T05:38:58;33.85;;;8.80;;
36923;SDS011;22841;50.252;18.688;2023-05-29T05:41:24;29.13;;;8.48;;
36923;SDS011;22841;50.252;18.688;2023-05-29T05:43:50;28.13;;;10.73;;
36923;SDS011;22841;50.252;18.688;2023-05-29T05:46:17;27.65;;;8.65;;
36923;SDS011;22841;50.252;18.688;2023-05-29T05:48:43;20.75;;;8.13;;
36923;SDS011;22841;50.252;18.688;2023-05-29T05:51:09;23.38;;;8.55;;
36923;SDS011;22841;50.252;18.688;2023-05-29T05:53:36;20.58;;;8.40;;
36923;SDS011;22841;50.252;18.688;2023-05-29T05:56:03;26.75;;;7.65;;
36923;SDS011;22841;50.252;18.688;2023-05-29T05:58:29;18.77;;;6.38;;
36923;SDS011;22841;50.252;18.688;2023-05-29T06:00:55;26.88;;;7.80;;
36923;SDS011;22841;50.252;18.688;2023-05-29T06:03:22;24.35;;;8.57;;
36923;SDS011;22841;50.252;18.688;2023-05-29T06:05:48;27.05;;;7.00;;
36923;SDS011;22841;50.252;18.688;2023-05-29T06:08:16;23.92;;;7.57;;
36923;SDS011;22841;50.252;18.688;2023-05-29T06:10:42;17.67;;;6.60;;
36923;SDS011;22841;50.252;18.688;2023-05-29T06:13:09;22.98;;;7.00;;
36923;SDS011;22841;50.252;18.688;2023-05-29T06:15:35;22.65;;;7.68;;
36923;SDS011;22841;50.252;18.688;2023-05-29T06:18:01;28.35;;;7.50;;
36923;SDS011;22841;50.252;18.688;2023-05-29T06:20:28;26.38;;;8.10;;
36923;SDS011;22841;50.252;18.688;2023-05-29T06:22:55;15.85;;;7.53;;
36923;SDS011;22841;50.252;18.688;2023-05-29T06:25:21;24.52;;;8.50;;
36923;SDS011;22841;50.252;18.688;2023-05-29T06:27:47;29.27;;;7.78;;
36923;SDS011;22841;50.252;18.688;2023-05-29T06:30:13;26.80;;;7.43;;
36923;SDS011;22841;50.252;18.688;2023-05-29T06:32:40;26.98;;;7.63;;
36923;SDS011;22841;50.252;18.688;2023-05-29T06:35:06;24.27;;;6.43;;
36923;SDS011;22841;50.252;18.688;2023-05-29T06:37:33;24.23;;;7.30;;
36923;SDS011;22841;50.252;18.688;2023-05-29T06:39:59;20.48;;;6.78;;
36923;SDS011;22841;50.252;18.688;2023-05-29T06:42:25;26.17;;;7.00;;
36923;SDS011;22841;50.252;18.688;2023-05-29T06:44:51;17.60;;;5.85;;
36923;SDS011;22841;50.252;18.688;2023-05-29T06:47:17;18.55;;;7.28;;
36923;SDS011;22841;50.252;18.688;2023-05-29T06:49:43;51.13;;;8.23;;
36923;SDS011;22841;50.252;18.688;2023-05-29T06:52:09;30.33;;;7.63;;
36923;SDS011;22841;50.252;18.688;2023-05-29T06:54:35;22.38;;;6.88;;
36923;SDS011;22841;50.252;18.688;2023-05-29T06:57:01;24.98;;;8.60;;
36923;SDS011;22841;50.252;18.688;2023-05-29T06:59:28;20.52;;;8.07;;
36923;SDS011;22841;50.252;18.688;2023-05-29T07:01:54;21.92;;;9.10;;
36923;SDS011;22841;50.252;18.688;2023-05-29T07:04:20;23.30;;;8.35;;
36923;SDS011;22841;50.252;18.688;2023-05-29T07:06:46;23.08;;;7.28;;
36923;SDS011;22841;50.252;18.688;2023-05-29T07:09:12;25.50;;;6.63;;
36923;SDS011;22841;50.252;18.688;2023-05-29T07:11:38;30.00;;;9.30;;
36923;SDS011;22841;50.252;18.688;2023-05-29T07:14:04;32.10;;;8.75;;
36923;SDS011;22841;50.252;18.688;2023-05-29T07:16:32;31.27;;;7.40;;
36923;SDS011;22841;50.252;18.688;2023-05-29T07:18:58;20.83;;;8.45;;
36923;SDS011;22841;50.252;18.688;2023-05-29T07:21:24;24.05;;;7.45;;
36923;SDS011;22841;50.252;18.688;2023-05-29T07:23:50;26.50;;;6.88;;
36923;SDS011;22841;50.252;18.688;2023-05-29T07:26:16;27.15;;;7.55;;
36923;SDS011;22841;50.252;18.688;2023-05-29T07:28:42;17.20;;;6.28;;
36923;SDS011;22841;50.252;18.688;2023-05-29T07:31:08;21.58;;;6.53;;
36923;SDS011;22841;50.252;18.688;2023-05-29T07:33:34;15.82;;;5.90;;
36923;SDS011;22841;50.252;18.688;2023-05-29T07:36:01;21.20;;;7.45;;
36923;SDS011;22841;50.252;18.688;2023-05-29T07:38:27;20.67;;;6.85;;
36923;SDS011;22841;50.252;18.688;2023-05-29T07:40:53;26.50;;;6.78;;
36923;SDS011;22841;50.252;18.688;2023-05-29T07:43:19;25.98;;;6.93;;
36923;SDS011;22841;50.252;18.688;2023-05-29T07:45:45;22.92;;;6.25;;
36923;SDS011;22841;50.252;18.688;2023-05-29T07:48:11;13.60;;;5.95;;
36923;SDS011;22841;50.252;18.688;2023-05-29T07:50:37;17.00;;;5.07;;
36923;SDS011;22841;50.252;18.688;2023-05-29T07:53:03;11.20;;;4.95;;
36923;SDS011;22841;50.252;18.688;2023-05-29T07:55:29;13.48;;;4.50;;
36923;SDS011;22841;50.252;18.688;2023-05-29T07:57:55;10.23;;;3.70;;
36923;SDS011;22841;50.252;18.688;2023-05-29T08:00:22;12.73;;;3.72;;
36923;SDS011;22841;50.252;18.688;2023-05-29T08:02:49;11.65;;;3.63;;
36923;SDS011;22841;50.252;18.688;2023-05-29T08:05:15;15.45;;;4.00;;
36923;SDS011;22841;50.252;18.688;2023-05-29T08:07:41;11.95;;;3.40;;
36923;SDS011;22841;50.252;18.688;2023-05-29T08:10:09;12.63;;;3.08;;
36923;SDS011;22841;50.252;18.688;2023-05-29T08:12:35;7.60;;;2.55;;
36923;SDS011;22841;50.252;18.688;2023-05-29T08:15:02;9.80;;;2.50;;
36923;SDS011;22841;50.252;18.688;2023-05-29T08:17:28;5.30;;;2.33;;
36923;SDS011;22841;50.252;18.688;2023-05-29T08:19:55;9.13;;;2.38;;
36923;SDS011;22841;50.252;18.688;2023-05-29T08:22:27;9.63;;;2.03;;
36923;SDS011;22841;50.252;18.688;2023-05-29T08:24:54;3.70;;;2.50;;
36923;SDS011;22841;50.252;18.688;2023-05-29T08:27:20;8.52;;;2.78;;
36923;SDS011;22841;50.252;18.688;2023-05-29T08:29:47;6.13;;;2.13;;
36923;SDS011;22841;50.252;18.688;2023-05-29T08:32:13;7.88;;;2.50;;
36923;SDS011;22841;50.252;18.688;2023-05-29T08:34:39;14.23;;;2.20;;
36923;SDS011;22841;50.252;18.688;2023-05-29T08:37:07;4.57;;;2.70;;
36923;SDS011;22841;50.252;18.688;2023-05-29T08:39:33;7.90;;;3.58;;
36923;SDS011;22841;50.252;18.688;2023-05-29T08:42:01;11.93;;;3.45;;
36923;SDS011;22841;50.252;18.688;2023-05-29T08:44:32;7.88;;;3.03;;
36923;SDS011;22841;50.252;18.688;2023-05-29T08:47:01;16.08;;;3.13;;
36923;SDS011;22841;50.252;18.688;2023-05-29T08:49:41;5.22;;;2.85;;
36923;SDS011;22841;50.252;18.688;2023-05-29T08:52:19;7.57;;;2.60;;
36923;SDS011;22841;50.252;18.688;2023-05-29T08:54:47;7.15;;;2.90;;
36923;SDS011;22841;50.252;18.688;2023-05-29T08:57:14;7.28;;;3.60;;
36923;SDS011;22841;50.252;18.688;2023-05-29T08:59:44;12.25;;;2.65;;
36923;SDS011;22841;50.252;18.688;2023-05-29T09:02:11;9.57;;;3.80;;
36923;SDS011;22841;50.252;18.688;2023-05-29T09:04:37;8.43;;;3.47;;
36923;SDS011;22841;50.252;18.688;2023-05-29T09:07:04;13.10;;;3.53;;
36923;SDS011;22841;50.252;18.688;2023-05-29T09:09:34;5.60;;;2.85;;
36923;SDS011;22841;50.252;18.688;2023-05-29T09:12:01;11.63;;;3.10;;
36923;SDS011;22841;50.252;18.688;2023-05-29T09:14:32;5.60;;;3.15;;
36923;SDS011;22841;50.252;18.688;2023-05-29T09:17:05;20.50;;;3.38;;
36923;SDS011;22841;50.252;18.688;2023-05-29T09:19:32;9.90;;;2.70;;
36923;SDS011;22841;50.252;18.688;2023-05-29T09:22:04;4.20;;;2.40;;
36923;SDS011;22841;50.252;18.688;2023-05-29T09:24:33;8.18;;;3.00;;
36923;SDS011;22841;50.252;18.688;2023-05-29T09:27:00;6.85;;;2.67;;
36923;SDS011;22841;50.252;18.688;2023-05-29T09:29:36;12.40;;;3.03;;
36923;SDS011;22841;50.252;18.688;2023-05-29T09:32:07;8.07;;;2.85;;
36923;SDS011;22841;50.252;18.688;2023-05-29T09:34:37;5.57;;;2.97;;
36923;SDS011;22841;50.252;18.688;2023-05-29T09:37:05;6.05;;;2.90;;
36923;SDS011;22841;50.252;18.688;2023-05-29T09:42:12;5.20;;;2.78;;
36923;SDS011;22841;50.252;18.688;2023-05-29T09:44:42;8.60;;;3.05;;
36923;SDS011;22841;50.252;18.688;2023-05-29T09:47:18;4.30;;;2.10;;
36923;SDS011;22841;50.252;18.688;2023-05-29T09:49:45;4.22;;;2.28;;
36923;SDS011;22841;50.252;18.688;2023-05-29T09:52:15;12.50;;;2.92;;
36923;SDS011;22841;50.252;18.688;2023-05-29T09:54:47;5.53;;;2.35;;
36923;SDS011;22841;50.252;18.688;2023-05-29T09:57:16;4.60;;;2.95;;
36923;SDS011;22841;50.252;18.688;2023-05-29T09:59:43;3.65;;;2.60;;
36923;SDS011;22841;50.252;18.688;2023-05-29T10:02:10;9.73;;;2.22;;
36923;SDS011;22841;50.252;18.688;2023-05-29T10:04:39;9.38;;;2.95;;
36923;SDS011;22841;50.252;18.688;2023-05-29T10:07:10;9.93;;;2.83;;
36923;SDS011;22841;50.252;18.688;2023-05-29T10:09:45;3.88;;;2.08;;
36923;SDS011;22841;50.252;18.688;2023-05-29T10:12:16;7.60;;;2.85;;
36923;SDS011;22841;50.252;18.688;2023-05-29T10:14:46;3.97;;;2.60;;
36923;SDS011;22841;50.252;18.688;2023-05-29T10:17:15;6.80;;;2.30;;
36923;SDS011;22841;50.252;18.688;2023-05-29T10:19:49;3.65;;;2.03;;
36923;SDS011;22841;50.252;18.688;2023-05-29T10:22:18;3.60;;;2.70;;
36923;SDS011;22841;50.252;18.688;2023-05-29T10:24:46;7.97;;;2.55;;
36923;SDS011;22841;50.252;18.688;2023-05-29T10:27:16;11.52;;;3.40;;
36923;SDS011;22841;50.252;18.688;2023-05-29T10:29:43;7.03;;;2.70;;
36923;SDS011;22841;50.252;18.688;2023-05-29T10:32:26;10.75;;;2.78;;
36923;SDS011;22841;50.252;18.688;2023-05-29T10:37:44;15.23;;;2.80;;
36923;SDS011;22841;50.252;18.688;2023-05-29T10:40:16;11.85;;;2.95;;
36923;SDS011;22841;50.252;18.688;2023-05-29T10:42:52;5.05;;;2.60;;
36923;SDS011;22841;50.252;18.688;2023-05-29T10:47:55;7.40;;;3.38;;
36923;SDS011;22841;50.252;18.688;2023-05-29T10:50:43;3.35;;;2.60;;
36923;SDS011;22841;50.252;18.688;2023-05-29T10:55:44;5.65;;;2.88;;
36923;SDS011;22841;50.252;18.688;2023-05-29T10:58:21;5.45;;;2.22;;
36923;SDS011;22841;50.252;18.688;2023-05-29T11:00:51;6.60;;;2.80;;
36923;SDS011;22841;50.252;18.688;2023-05-29T11:03:24;6.45;;;2.72;;
36923;SDS011;22841;50.252;18.688;2023-05-29T11:09:25;7.53;;;2.58;;
36923;SDS011;22841;50.252;18.688;2023-05-29T11:13:54;8.75;;;2.58;;
36923;SDS011;22841;50.252;18.688;2023-05-29T11:18:51;11.02;;;2.80;;
36923;SDS011;22841;50.252;18.688;2023-05-29T11:21:31;5.43;;;2.40;;
36923;SDS011;22841;50.252;18.688;2023-05-29T11:26:52;3.67;;;2.10;;
36923;SDS011;22841;50.252;18.688;2023-05-29T11:29:23;4.68;;;2.00;;
36923;SDS011;22841;50.252;18.688;2023-05-29T11:31:58;6.38;;;2.55;;
36923;SDS011;22841;50.252;18.688;2023-05-29T11:34:28;3.92;;;2.42;;
36923;SDS011;22841;50.252;18.688;2023-05-29T11:36:56;7.95;;;2.58;;
36923;SDS011;22841;50.252;18.688;2023-05-29T11:39:24;9.43;;;3.10;;
36923;SDS011;22841;50.252;18.688;2023-05-29T11:41:51;9.40;;;2.90;;
36923;SDS011;22841;50.252;18.688;2023-05-29T11:44:23;4.20;;;2.47;;
36923;SDS011;22841;50.252;18.688;2023-05-29T11:47:04;4.15;;;2.22;;
36923;SDS011;22841;50.252;18.688;2023-05-29T11:49:33;6.97;;;2.50;;
36923;SDS011;22841;50.252;18.688;2023-05-29T11:52:06;9.15;;;2.30;;
36923;SDS011;22841;50.252;18.688;2023-05-29T11:54:33;9.40;;;2.33;;
36923;SDS011;22841;50.252;18.688;2023-05-29T11:57:00;5.50;;;2.67;;
36923;SDS011;22841;50.252;18.688;2023-05-29T11:59:30;6.75;;;2.70;;
36923;SDS011;22841;50.252;18.688;2023-05-29T12:02:03;6.45;;;2.28;;
36923;SDS011;22841;50.252;18.688;2023-05-29T12:04:29;5.20;;;2.55;;
36923;SDS011;22841;50.252;18.688;2023-05-29T12:06:55;6.38;;;2.78;;
36923;SDS011;22841;50.252;18.688;2023-05-29T12:09:28;22.42;;;3.00;;
36923;SDS011;22841;50.252;18.688;2023-05-29T12:12:04;7.55;;;2.33;;
36923;SDS011;22841;50.252;18.688;2023-05-29T12:14:32;9.18;;;2.60;;
36923;SDS011;22841;50.252;18.688;2023-05-29T12:16:58;5.93;;;2.42;;
36923;SDS011;22841;50.252;18.688;2023-05-29T12:19:25;41.47;;;3.85;;
36923;SDS011;22841;50.252;18.688;2023-05-29T12:21:51;6.78;;;2.40;;
36923;SDS011;22841;50.252;18.688;2023-05-29T12:24:18;3.10;;;2.20;;
36923;SDS011;22841;50.252;18.688;2023-05-29T12:26:45;4.40;;;3.08;;
36923;SDS011;22841;50.252;18.688;2023-05-29T12:29:13;2.85;;;2.47;;
36923;SDS011;22841;50.252;18.688;2023-05-29T12:31:39;7.22;;;2.90;;
36923;SDS011;22841;50.252;18.688;2023-05-29T12:34:11;13.32;;;2.90;;
36923;SDS011;22841;50.252;18.688;2023-05-29T12:36:41;11.90;;;2.70;;
36923;SDS011;22841;50.252;18.688;2023-05-29T12:39:08;16.30;;;2.80;;
36923;SDS011;22841;50.252;18.688;2023-05-29T12:41:35;8.15;;;2.50;;
36923;SDS011;22841;50.252;18.688;2023-05-29T12:44:02;8.68;;;2.25;;
36923;SDS011;22841;50.252;18.688;2023-05-29T12:46:37;6.70;;;3.00;;
36923;SDS011;22841;50.252;18.688;2023-05-29T12:49:17;3.33;;;2.58;;
36923;SDS011;22841;50.252;18.688;2023-05-29T12:51:46;7.57;;;2.85;;
36923;SDS011;22841;50.252;18.688;2023-05-29T12:54:13;7.85;;;2.90;;
36923;SDS011;22841;50.252;18.688;2023-05-29T12:56:41;6.85;;;2.85;;
36923;SDS011;22841;50.252;18.688;2023-05-29T12:59:07;6.50;;;2.55;;
36923;SDS011;22841;50.252;18.688;2023-05-29T13:01:34;6.00;;;2.63;;
36923;SDS011;22841;50.252;18.688;2023-05-29T13:04:04;11.85;;;2.78;;
36923;SDS011;22841;50.252;18.688;2023-05-29T13:06:35;5.72;;;3.33;;
36923;SDS011;22841;50.252;18.688;2023-05-29T13:09:02;8.27;;;3.47;;
36923;SDS011;22841;50.252;18.688;2023-05-29T13:11:30;5.53;;;2.50;;
36923;SDS011;22841;50.252;18.688;2023-05-29T13:13:57;6.78;;;2.65;;
36923;SDS011;22841;50.252;18.688;2023-05-29T13:16:23;10.30;;;3.92;;
36923;SDS011;22841;50.252;18.688;2023-05-29T13:18:49;4.93;;;2.65;;
36923;SDS011;22841;50.252;18.688;2023-05-29T13:21:15;6.93;;;2.53;;
36923;SDS011;22841;50.252;18.688;2023-05-29T13:23:41;5.95;;;2.92;;
36923;SDS011;22841;50.252;18.688;2023-05-29T13:26:07;6.78;;;3.00;;
36923;SDS011;22841;50.252;18.688;2023-05-29T13:28:33;8.85;;;3.33;;
36923;SDS011;22841;50.252;18.688;2023-05-29T13:30:59;7.20;;;3.58;;
36923;SDS011;22841;50.252;18.688;2023-05-29T13:33:26;9.80;;;3.03;;
36923;SDS011;22841;50.252;18.688;2023-05-29T13:35:52;8.70;;;2.78;;
36923;SDS011;22841;50.252;18.688;2023-05-29T13:38:18;5.72;;;2.70;;
36923;SDS011;22841;50.252;18.688;2023-05-29T13:40:44;5.43;;;3.00;;
36923;SDS011;22841;50.252;18.688;2023-05-29T13:43:10;5.32;;;2.53;;
36923;SDS011;22841;50.252;18.688;2023-05-29T13:45:36;4.32;;;2.90;;
36923;SDS011;22841;50.252;18.688;2023-05-29T13:48:03;7.95;;;3.00;;
36923;SDS011;22841;50.252;18.688;2023-05-29T13:50:29;4.10;;;2.95;;
36923;SDS011;22841;50.252;18.688;2023-05-29T13:52:55;9.50;;;3.90;;
36923;SDS011;22841;50.252;18.688;2023-05-29T13:55:21;7.20;;;3.22;;
36923;SDS011;22841;50.252;18.688;2023-05-29T13:57:48;7.57;;;2.85;;
36923;SDS011;22841;50.252;18.688;2023-05-29T14:00:14;8.80;;;3.13;;
36923;SDS011;22841;50.252;18.688;2023-05-29T14:02:40;6.03;;;3.00;;
36923;SDS011;22841;50.252;18.688;2023-05-29T14:05:07;11.70;;;3.17;;
36923;SDS011;22841;50.252;18.688;2023-05-29T14:07:33;9.27;;;2.90;;
36923;SDS011;22841;50.252;18.688;2023-05-29T14:09:59;7.63;;;3.10;;
36923;SDS011;22841;50.252;18.688;2023-05-29T14:12:26;7.10;;;3.22;;
36923;SDS011;22841;50.252;18.688;2023-05-29T14:14:52;6.35;;;3.28;;
36923;SDS011;22841;50.252;18.688;2023-05-29T14:17:18;28.42;;;7.25;;
36923;SDS011;22841;50.252;18.688;2023-05-29T14:19:44;13.23;;;3.60;;
36923;SDS011;22841;50.252;18.688;2023-05-29T14:22:13;10.88;;;3.72;;
36923;SDS011;22841;50.252;18.688;2023-05-29T14:24:39;4.75;;;3.17;;
36923;SDS011;22841;50.252;18.688;2023-05-29T14:27:06;7.28;;;3.88;;
36923;SDS011;22841;50.252;18.688;2023-05-29T14:29:32;15.07;;;3.88;;
36923;SDS011;22841;50.252;18.688;2023-05-29T14:31:58;6.78;;;3.25;;
36923;SDS011;22841;50.252;18.688;2023-05-29T14:34:24;6.25;;;3.30;;
36923;SDS011;22841;50.252;18.688;2023-05-29T14:36:51;13.82;;;3.15;;
36923;SDS011;22841;50.252;18.688;2023-05-29T14:39:17;15.68;;;2.78;;
36923;SDS011;22841;50.252;18.688;2023-05-29T14:41:43;3.67;;;3.13;;
36923;SDS011;22841;50.252;18.688;2023-05-29T14:44:09;3.92;;;3.22;;
36923;SDS011;22841;50.252;18.688;2023-05-29T14:46:37;8.60;;;3.67;;
36923;SDS011;22841;50.252;18.688;2023-05-29T14:49:03;4.57;;;2.90;;
36923;SDS011;22841;50.252;18.688;2023-05-29T14:51:29;8.02;;;4.03;;